createdAt,value
2018-08-03T00:01:49.415Z,16.33
2018-08-03T00:04:18.735Z,16.17
2018-08-03T00:06:47.337Z,17.33
2018-08-03T00:09:16.949Z,15.37
2018-08-03T00:11:45.831Z,16.13
2018-08-03T00:14:15.826Z,14.90
2018-08-03T00:16:45.670Z,14.70
2018-08-03T00:19:15.038Z,15.87
2018-08-03T00:21:43.710Z,15.70
2018-08-03T00:24:14.161Z,15.83
2018-08-03T00:26:43.507Z,16.40
2018-08-03T00:29:12.390Z,16.50
2018-08-03T00:31:42.526Z,16.63
2018-08-03T00:34:12.155Z,17.50
2018-08-03T00:36:40.860Z,15.40
2018-08-03T00:39:11.322Z,15.43
2018-08-03T00:41:40.530Z,15.37
2018-08-03T00:44:11.416Z,16.43
2018-08-03T00:46:40.630Z,16.37
2018-08-03T00:49:09.339Z,15.57
2018-08-03T00:51:37.989Z,15.80
2018-08-03T00:54:06.693Z,17.40
2018-08-03T00:56:36.162Z,17.60
2018-08-03T00:59:06.839Z,15.50
2018-08-03T01:01:36.365Z,16.77
2018-08-03T01:04:06.190Z,18.70
2018-08-03T01:06:34.897Z,16.20
2018-08-03T01:09:03.807Z,15.87
2018-08-03T01:11:32.535Z,15.90
2018-08-03T01:14:01.189Z,16.57
2018-08-03T01:16:32.251Z,15.97
2018-08-03T01:19:01.471Z,20.80
2018-08-03T01:21:30.713Z,15.70
2018-08-03T01:24:00.254Z,15.10
2018-08-03T01:26:30.095Z,17.43
2018-08-03T01:28:58.772Z,16.57
2018-08-03T01:31:27.518Z,15.77
2018-08-03T01:33:56.165Z,17.53
2018-08-03T01:36:24.930Z,19.23
2018-08-03T01:38:54.441Z,15.47
2018-08-03T01:41:23.452Z,19.07
2018-08-03T01:43:52.650Z,15.43
2018-08-03T01:46:22.954Z,15.23
2018-08-03T01:48:52.299Z,15.50
2018-08-03T01:51:21.496Z,18.87
2018-08-03T01:53:51.057Z,19.97
2018-08-03T01:56:19.739Z,17.50
2018-08-03T01:58:49.426Z,19.23
2018-08-03T02:01:18.929Z,18.77
2018-08-03T02:03:47.831Z,17.43
2018-08-03T02:06:18.357Z,18.53
2018-08-03T02:08:48.253Z,18.73
2018-08-03T02:11:17.628Z,15.87
2018-08-03T02:13:47.738Z,18.60
2018-08-03T02:16:17.799Z,17.63
2018-08-03T02:18:47.232Z,19.73
2018-08-03T02:21:16.733Z,19.73
2018-08-03T02:23:46.007Z,17.33
2018-08-03T02:26:15.214Z,17.77
2018-08-03T02:28:43.923Z,18.40
2018-08-03T02:31:13.038Z,19.90
2018-08-03T02:33:42.364Z,16.33
2018-08-03T02:36:12.857Z,18.17
2018-08-03T02:38:42.651Z,17.97
2018-08-03T02:41:12.253Z,18.07
2018-08-03T02:43:41.673Z,20.17
2018-08-03T02:46:10.358Z,18.73
2018-08-03T02:48:41.375Z,15.70
2018-08-03T02:51:10.585Z,20.60
2018-08-03T02:53:40.805Z,16.13
2018-08-03T02:56:09.443Z,17.37
2018-08-03T02:58:38.608Z,19.83
2018-08-03T03:01:08.257Z,20.20
2018-08-03T03:03:37.652Z,18.63
2018-08-03T03:06:07.432Z,22.23
2018-08-03T03:08:36.767Z,20.30
2018-08-03T03:11:06.340Z,26.50
2018-08-03T03:13:35.937Z,25.20
2018-08-03T03:16:05.412Z,21.17
2018-08-03T03:18:34.584Z,22.67
2018-08-03T03:21:03.390Z,21.53
2018-08-03T03:23:33.158Z,23.83
2018-08-03T03:26:03.078Z,22.73
2018-08-03T03:28:32.484Z,20.50
2018-08-03T03:31:01.961Z,24.80
2018-08-03T03:33:31.212Z,22.50
2018-08-03T03:36:00.469Z,22.20
2018-08-03T03:38:29.278Z,19.67
2018-08-03T03:40:58.751Z,19.80
2018-08-03T03:43:29.265Z,21.60
2018-08-03T03:45:58.930Z,16.73
2018-08-03T03:48:29.367Z,22.23
2018-08-03T03:50:59.450Z,19.40
2018-08-03T03:53:28.034Z,22.83
2018-08-03T03:55:56.635Z,23.53
2018-08-03T03:58:25.884Z,19.80
2018-08-03T04:00:54.731Z,20.37
2018-08-03T04:03:23.571Z,22.27
2018-08-03T04:05:52.352Z,20.07
2018-08-03T04:08:21.243Z,25.30
2018-08-03T04:10:49.945Z,23.87
2018-08-03T04:13:19.200Z,29.60
2018-08-03T04:15:47.910Z,23.50
2018-08-03T04:18:21.554Z,24.63
2018-08-03T04:20:51.523Z,22.50
2018-08-03T04:23:21.569Z,19.23
2018-08-03T04:25:51.575Z,22.27
2018-08-03T04:28:20.834Z,23.33
2018-08-03T04:30:50.994Z,24.23
2018-08-03T04:33:20.505Z,18.83
2018-08-03T04:35:49.225Z,20.80
2018-08-03T04:38:17.803Z,22.43
2018-08-03T04:40:47.030Z,20.23
2018-08-03T04:43:16.481Z,19.97
2018-08-03T04:45:45.875Z,23.40
2018-08-03T04:48:14.621Z,23.93
2018-08-03T04:50:44.324Z,20.20
2018-08-03T04:53:13.538Z,20.90
2018-08-03T04:55:43.015Z,26.40
2018-08-03T04:58:11.660Z,24.93
2018-08-03T05:00:40.298Z,21.23
2018-08-03T05:03:08.951Z,24.30
2018-08-03T05:05:37.600Z,22.53
2018-08-03T05:08:06.516Z,24.80
2018-08-03T05:10:35.180Z,24.90
2018-08-03T05:13:03.778Z,30.17
2018-08-03T05:15:32.435Z,27.63
2018-08-03T05:18:01.116Z,23.80
2018-08-03T05:20:30.378Z,21.40
2018-08-03T05:22:58.982Z,24.30
2018-08-03T05:25:27.736Z,30.50
2018-08-03T05:27:56.329Z,28.27
2018-08-03T05:30:25.098Z,25.50
2018-08-03T05:32:53.675Z,26.00
2018-08-03T05:35:22.336Z,25.20
2018-08-03T05:37:52.214Z,25.30
2018-08-03T05:40:22.143Z,29.93
2018-08-03T05:42:51.593Z,28.40
2018-08-03T05:45:21.094Z,28.63
2018-08-03T05:47:50.943Z,27.37
2018-08-03T05:50:19.902Z,29.23
2018-08-03T05:52:48.652Z,26.40
2018-08-03T05:55:18.855Z,27.30
2018-08-03T05:57:47.572Z,28.07
2018-08-03T06:00:16.222Z,26.90
2018-08-03T06:02:44.903Z,27.80
2018-08-03T06:05:14.505Z,25.17
2018-08-03T06:07:43.114Z,27.43
2018-08-03T06:10:12.563Z,32.47
2018-08-03T06:12:41.779Z,27.63
2018-08-03T06:15:11.502Z,30.23
2018-08-03T06:17:41.072Z,24.20
2018-08-03T06:20:12.107Z,24.47
2018-08-03T06:22:41.099Z,24.73
2018-08-03T06:25:10.498Z,24.13
2018-08-03T06:27:39.185Z,27.67
2018-08-03T06:30:10.142Z,26.00
2018-08-03T06:32:39.314Z,29.07
2018-08-03T06:35:08.248Z,25.77
2018-08-03T06:37:37.222Z,30.00
2018-08-03T06:40:05.916Z,31.70
2018-08-03T06:42:34.605Z,26.53
2018-08-03T06:45:03.307Z,25.10
2018-08-03T06:47:31.928Z,28.57
2018-08-03T06:50:00.582Z,28.77
2018-08-03T06:52:29.859Z,33.27
2018-08-03T06:54:58.529Z,29.03
2018-08-03T06:57:27.929Z,32.10
2018-08-03T06:59:56.532Z,29.43
2018-08-03T07:02:25.155Z,22.80
2018-08-03T07:04:54.181Z,25.00
2018-08-03T07:07:22.799Z,28.07
2018-08-03T07:09:51.461Z,27.30
2018-08-03T07:12:20.206Z,26.00
2018-08-03T07:14:48.868Z,26.43
2018-08-03T07:17:17.520Z,27.50
2018-08-03T07:19:46.171Z,27.27
2018-08-03T07:22:14.874Z,28.00
2018-08-03T07:24:44.236Z,27.57
2018-08-03T07:27:13.511Z,24.33
2018-08-03T07:29:42.174Z,24.90
2018-08-03T07:32:10.819Z,24.50
2018-08-03T07:34:39.474Z,20.73
2018-08-03T07:37:08.181Z,22.77
2018-08-03T07:39:37.751Z,24.03
2018-08-03T07:42:06.434Z,23.83
2018-08-03T07:44:35.106Z,27.47
2018-08-03T07:47:03.761Z,22.13
2018-08-03T07:49:32.450Z,20.53
2018-08-03T07:52:01.082Z,24.00
2018-08-03T07:54:29.782Z,20.47
2018-08-03T07:56:59.837Z,26.20
2018-08-03T07:59:28.742Z,25.63
2018-08-03T08:01:58.646Z,24.47
2018-08-03T08:04:27.941Z,22.80
2018-08-03T08:06:56.903Z,26.30
2018-08-03T08:09:26.286Z,27.67
2018-08-03T08:11:56.810Z,18.63
2018-08-03T08:14:26.817Z,24.23
2018-08-03T08:16:56.786Z,22.53
2018-08-03T08:19:26.201Z,24.50
2018-08-03T08:21:56.026Z,22.63
2018-08-03T08:24:25.360Z,18.63
2018-08-03T08:26:54.905Z,20.67
2018-08-03T08:29:24.487Z,19.43
2018-08-03T08:31:53.140Z,19.90
2018-08-03T08:34:21.795Z,19.00
2018-08-03T08:36:50.519Z,17.03
2018-08-03T08:39:19.301Z,19.03
2018-08-03T08:41:48.138Z,18.20
2018-08-03T08:44:16.791Z,18.53
2018-08-03T08:46:45.477Z,20.13
2018-08-03T08:49:14.206Z,18.73
2018-08-03T08:51:43.575Z,18.20
2018-08-03T08:54:13.216Z,21.57
2018-08-03T08:56:41.873Z,19.60
2018-08-03T08:59:10.616Z,17.00
2018-08-03T09:01:39.368Z,17.57
2018-08-03T09:04:08.225Z,16.40
2018-08-03T09:06:36.927Z,18.00
2018-08-03T09:09:08.339Z,18.40
2018-08-03T09:11:37.082Z,16.33
2018-08-03T09:14:05.760Z,18.10
2018-08-03T09:16:34.433Z,18.60
2018-08-03T09:19:03.400Z,18.40
2018-08-03T09:21:32.295Z,17.07
2018-08-03T09:24:00.936Z,18.70
2018-08-03T09:26:30.300Z,15.93
2018-08-03T09:28:58.948Z,16.70
2018-08-03T09:31:27.600Z,14.83
2018-08-03T09:33:56.235Z,16.30
2018-08-03T09:36:24.897Z,17.57
2018-08-03T09:38:53.664Z,16.77
2018-08-03T09:41:22.981Z,17.13
2018-08-03T09:43:51.652Z,20.37
2018-08-03T09:46:20.333Z,17.47
2018-08-03T09:48:49.242Z,16.60
2018-08-03T09:51:18.239Z,15.13
2018-08-03T09:53:47.624Z,17.27
2018-08-03T09:56:16.270Z,15.37
2018-08-03T09:58:45.504Z,15.67
2018-08-03T10:01:14.221Z,18.17
2018-08-03T10:03:43.461Z,19.10
2018-08-03T10:06:12.951Z,18.63
2018-08-03T10:08:41.737Z,13.60
2018-08-03T10:11:10.622Z,16.17
2018-08-03T10:13:39.456Z,16.53
2018-08-03T10:16:08.153Z,13.80
2018-08-03T10:18:36.835Z,14.30
2018-08-03T10:21:05.836Z,17.73
2018-08-03T10:23:34.440Z,15.80
2018-08-03T10:26:03.733Z,16.43
2018-08-03T10:28:32.504Z,14.70
2018-08-03T10:31:02.047Z,19.63
2018-08-03T10:33:30.677Z,14.20
2018-08-03T10:35:59.824Z,15.83
2018-08-03T10:38:28.576Z,15.43
2018-08-03T10:40:57.370Z,19.70
2018-08-03T10:43:26.467Z,18.50
2018-08-03T10:45:57.092Z,15.50
2018-08-03T10:48:25.749Z,16.13
2018-08-03T10:50:55.989Z,14.83
2018-08-03T10:53:24.729Z,16.00
2018-08-03T10:55:54.895Z,15.07
2018-08-03T10:58:23.725Z,14.93
2018-08-03T11:00:52.721Z,16.20
2018-08-03T11:03:22.242Z,14.60
2018-08-03T11:05:50.889Z,14.50
2018-08-03T11:08:19.570Z,16.13
2018-08-03T11:10:48.742Z,14.70
2018-08-03T11:13:17.355Z,17.03
2018-08-03T11:15:46.045Z,15.70
2018-08-03T11:18:14.726Z,15.20
2018-08-03T11:20:43.859Z,14.40
2018-08-03T11:23:12.492Z,14.63
2018-08-03T11:25:41.699Z,16.13
2018-08-03T11:30:45.968Z,14.30
2018-08-03T11:33:14.997Z,14.07
2018-08-03T11:35:43.683Z,14.93
2018-08-03T11:38:12.511Z,13.90
2018-08-03T11:40:41.592Z,16.00
2018-08-03T11:43:10.420Z,14.07
2018-08-03T11:45:39.388Z,15.20
2018-08-03T11:48:08.708Z,15.70
2018-08-03T11:50:37.539Z,14.10
2018-08-03T11:53:06.241Z,13.57
2018-08-03T11:55:35.834Z,12.20
2018-08-03T11:58:05.399Z,12.00
2018-08-03T12:00:34.101Z,14.10
2018-08-03T12:03:03.693Z,11.63
2018-08-03T12:05:32.947Z,12.10
2018-08-03T12:08:02.074Z,11.47
2018-08-03T12:10:30.738Z,12.93
2018-08-03T12:12:59.650Z,12.20
2018-08-03T12:15:28.504Z,12.57
2018-08-03T12:17:57.360Z,13.17
2018-08-03T12:20:26.775Z,12.27
2018-08-03T12:22:55.617Z,11.83
2018-08-03T12:25:24.367Z,11.67
2018-08-03T12:27:53.051Z,11.40
2018-08-03T12:30:22.535Z,11.37
2018-08-03T12:32:51.326Z,11.63
2018-08-03T12:35:20.383Z,11.20
2018-08-03T12:37:49.092Z,12.70
2018-08-03T12:40:18.084Z,13.80
2018-08-03T12:42:47.552Z,12.50
2018-08-03T12:45:16.992Z,13.10
2018-08-03T12:47:46.451Z,12.10
2018-08-03T12:50:16.047Z,12.23
2018-08-03T12:52:45.583Z,14.03
2018-08-03T12:55:14.305Z,11.63
2018-08-03T12:57:43.935Z,12.70
2018-08-03T13:00:13.161Z,12.60
2018-08-03T13:02:41.891Z,12.43
2018-08-03T13:05:10.592Z,12.90
2018-08-03T13:07:40.139Z,10.93
2018-08-03T13:10:09.042Z,11.37
2018-08-03T13:12:38.131Z,11.97
2018-08-03T13:15:08.181Z,11.20
2018-08-03T13:17:37.089Z,12.33
2018-08-03T13:20:07.985Z,12.10
2018-08-03T13:22:37.532Z,14.37
2018-08-03T13:25:06.573Z,12.67
2018-08-03T13:27:35.209Z,10.50
2018-08-03T13:30:04.008Z,11.27
2018-08-03T13:32:33.421Z,11.03
2018-08-03T13:35:02.054Z,11.77
2018-08-03T13:37:30.828Z,12.00
2018-08-03T13:39:59.556Z,11.53
2018-08-03T13:42:28.544Z,11.53
2018-08-03T13:44:57.240Z,11.57
2018-08-03T13:47:25.873Z,11.53
2018-08-03T13:49:54.587Z,11.20
2018-08-03T13:52:23.260Z,11.00
2018-08-03T13:54:51.900Z,11.93
2018-08-03T13:57:20.883Z,13.43
2018-08-03T13:59:49.484Z,11.00
2018-08-03T14:02:20.581Z,10.70
2018-08-03T14:04:49.188Z,11.77
2018-08-03T14:07:17.868Z,20.63
2018-08-03T14:09:46.737Z,10.40
2018-08-03T14:12:15.404Z,9.27
2018-08-03T14:14:44.040Z,12.17
2018-08-03T14:17:14.338Z,14.63
2018-08-03T14:19:45.206Z,12.30
2018-08-03T14:22:14.042Z,11.47
2018-08-03T14:24:42.686Z,11.93
2018-08-03T14:27:11.357Z,11.87
2018-08-03T14:29:40.087Z,11.07
2018-08-03T14:32:09.942Z,11.27
2018-08-03T14:34:38.619Z,12.07
2018-08-03T14:37:07.924Z,10.30
2018-08-03T14:39:36.529Z,10.80
2018-08-03T14:42:05.950Z,10.37
2018-08-03T14:44:35.586Z,11.83
2018-08-03T14:47:05.629Z,11.07
2018-08-03T14:49:34.942Z,10.93
2018-08-03T14:52:05.315Z,11.63
2018-08-03T14:54:33.969Z,11.30
2018-08-03T14:57:03.420Z,11.57
2018-08-03T14:59:32.224Z,15.20
2018-08-03T15:02:00.937Z,11.47
2018-08-03T15:04:29.608Z,11.90
2018-08-03T15:06:58.491Z,12.47
2018-08-03T15:09:27.204Z,9.87
2018-08-03T15:11:55.951Z,11.27
2018-08-03T15:14:25.495Z,11.00
2018-08-03T15:16:54.186Z,10.40
2018-08-03T15:19:23.748Z,10.13
2018-08-03T15:21:52.499Z,11.23
2018-08-03T15:24:22.082Z,10.87
2018-08-03T15:26:50.965Z,12.37
2018-08-03T15:29:19.628Z,11.27
2018-08-03T15:31:48.885Z,11.67
2018-08-03T15:34:17.651Z,10.37
2018-08-03T15:36:46.462Z,10.87
2018-08-03T15:39:15.039Z,10.50
2018-08-03T15:41:44.218Z,10.57
2018-08-03T15:44:13.818Z,9.93
2018-08-03T15:46:43.885Z,10.90
2018-08-03T15:49:12.631Z,11.83
2018-08-03T15:51:41.418Z,11.70
2018-08-03T15:54:10.021Z,9.93
2018-08-03T15:56:38.706Z,10.97
2018-08-03T15:59:07.383Z,10.10
2018-08-03T16:01:36.060Z,10.53
2018-08-03T16:04:04.889Z,10.10
2018-08-03T16:06:36.724Z,10.30
2018-08-03T16:09:08.828Z,11.23
2018-08-03T16:11:37.470Z,10.70
2018-08-03T16:14:07.561Z,10.27
2018-08-03T16:16:36.259Z,10.63
2018-08-03T16:19:04.919Z,10.40
2018-08-03T16:21:34.548Z,12.00
2018-08-03T16:24:03.617Z,9.20
2018-08-03T16:26:33.279Z,12.70
2018-08-03T16:29:01.951Z,13.40
2018-08-03T16:31:31.017Z,10.73
2018-08-03T16:33:59.909Z,12.07
2018-08-03T16:36:28.650Z,23.43
2018-08-03T16:39:03.750Z,12.00
2018-08-03T16:41:32.615Z,11.33
2018-08-03T16:44:01.346Z,11.03
2018-08-03T16:46:30.264Z,11.73
2018-08-03T16:48:58.893Z,11.73
2018-08-03T16:51:27.967Z,11.77
2018-08-03T16:53:56.694Z,11.87
2018-08-03T16:56:25.358Z,11.50
2018-08-03T16:58:54.146Z,12.60
2018-08-03T17:01:22.950Z,12.03
2018-08-03T17:03:51.630Z,10.40
2018-08-03T17:06:20.308Z,18.80
2018-08-03T17:08:48.938Z,11.60
2018-08-03T17:11:17.600Z,11.60
2018-08-03T17:13:46.274Z,14.90
2018-08-03T17:16:14.950Z,15.60
2018-08-03T17:18:44.329Z,14.83
2018-08-03T17:21:13.131Z,11.50
2018-08-03T17:23:41.836Z,13.10
2018-08-03T17:26:10.458Z,11.03
2018-08-03T17:28:39.275Z,11.60
2018-08-03T17:31:08.482Z,12.07
2018-08-03T17:33:37.147Z,12.97
2018-08-03T17:36:06.175Z,11.60
2018-08-03T17:38:34.788Z,12.17
2018-08-03T17:41:04.173Z,13.57
2018-08-03T17:43:32.871Z,12.37
2018-08-03T17:46:01.528Z,18.13
2018-08-03T17:48:30.873Z,11.00
2018-08-03T17:51:00.646Z,10.93
2018-08-03T17:53:29.380Z,10.93
2018-08-03T17:55:59.017Z,11.43
2018-08-03T17:58:28.370Z,12.63
2018-08-03T18:00:57.059Z,11.60
2018-08-03T18:03:25.769Z,11.87
2018-08-03T18:05:54.517Z,13.70
2018-08-03T18:08:23.172Z,12.10
2018-08-03T18:10:52.636Z,11.37
2018-08-03T18:13:21.307Z,11.23
2018-08-03T18:15:50.019Z,18.57
2018-08-03T18:18:18.577Z,12.17
2018-08-03T18:20:47.297Z,12.50
2018-08-03T18:23:15.965Z,12.37
2018-08-03T18:25:49.021Z,12.20
2018-08-03T18:28:18.342Z,14.77
2018-08-03T18:30:47.112Z,12.20
2018-08-03T18:33:15.745Z,11.00
2018-08-03T18:35:45.018Z,11.40
2018-08-03T18:38:13.979Z,14.47
2018-08-03T18:40:42.586Z,15.30
2018-08-03T18:43:11.609Z,11.10
2018-08-03T18:45:40.474Z,12.50
2018-08-03T18:48:09.225Z,18.57
2018-08-03T18:50:37.891Z,11.80
2018-08-03T18:53:06.721Z,11.87
2018-08-03T18:55:36.433Z,21.40
2018-08-03T18:58:05.226Z,13.37
2018-08-03T19:00:33.942Z,14.13
2018-08-03T19:03:03.465Z,15.37
2018-08-03T19:05:32.831Z,13.37
2018-08-03T19:08:01.611Z,17.60
2018-08-03T19:10:30.342Z,15.07
2018-08-03T19:12:59.017Z,14.70
2018-08-03T19:15:28.262Z,14.33
2018-08-03T19:17:56.925Z,14.30
2018-08-03T19:20:25.602Z,18.17
2018-08-03T19:22:55.100Z,17.37
2018-08-03T19:25:24.176Z,16.70
2018-08-03T19:27:52.908Z,21.30
2018-08-03T19:30:21.575Z,25.23
2018-08-03T19:32:50.849Z,14.57
2018-08-03T19:35:19.603Z,15.53
2018-08-03T19:37:48.670Z,13.53
2018-08-03T19:40:17.987Z,15.60
2018-08-03T19:42:46.845Z,14.00
2018-08-03T19:45:15.968Z,13.90
2018-08-03T19:47:44.711Z,18.50
2018-08-03T19:50:13.645Z,21.13
2018-08-03T19:52:42.834Z,15.50
2018-08-03T19:55:11.557Z,22.23
2018-08-03T19:57:40.766Z,16.27
2018-08-03T20:00:11.654Z,14.40
2018-08-03T20:02:41.012Z,14.90
2018-08-03T20:05:11.344Z,16.73
2018-08-03T20:07:39.971Z,19.40
2018-08-03T20:10:09.469Z,15.13
2018-08-03T20:12:38.118Z,19.33
2018-08-03T20:15:07.449Z,18.30
2018-08-03T20:17:36.166Z,18.90
2018-08-03T20:20:04.970Z,17.27
2018-08-03T20:22:33.694Z,17.33
2018-08-03T20:25:02.393Z,21.93
2018-08-03T20:27:31.249Z,20.27
2018-08-03T20:29:59.988Z,22.20
2018-08-03T20:32:28.681Z,17.30
2018-08-03T20:34:57.518Z,24.97
2018-08-03T20:37:26.491Z,19.57
2018-08-03T20:39:55.312Z,18.63
2018-08-03T20:42:24.085Z,23.07
2018-08-03T20:44:53.124Z,19.23
2018-08-03T20:47:21.848Z,22.20
2018-08-03T20:49:50.693Z,17.53
2018-08-03T20:52:19.659Z,25.17
2018-08-03T20:54:49.236Z,21.27
2018-08-03T20:57:18.203Z,17.37
2018-08-03T20:59:46.879Z,18.90
2018-08-03T21:02:15.477Z,19.23
2018-08-03T21:04:44.470Z,22.40
2018-08-03T21:07:13.115Z,17.53
2018-08-03T21:09:41.876Z,20.30
2018-08-03T21:12:10.619Z,18.50
2018-08-03T21:14:40.075Z,22.53
2018-08-03T21:17:08.723Z,17.80
2018-08-03T21:19:37.361Z,16.27
2018-08-03T21:22:06.047Z,18.43
2018-08-03T21:24:34.849Z,23.83
2018-08-03T21:27:03.829Z,17.07
2018-08-03T21:29:32.519Z,19.50
2018-08-03T21:32:01.132Z,22.03
2018-08-03T21:34:29.771Z,16.90
2018-08-03T21:36:58.519Z,16.27
2018-08-03T21:39:27.213Z,18.70
2018-08-03T21:41:55.885Z,16.93
2018-08-03T21:44:25.226Z,17.30
2018-08-03T21:46:54.633Z,18.80
2018-08-03T21:49:23.262Z,19.23
2018-08-03T21:51:51.902Z,17.53
2018-08-03T21:54:21.421Z,31.73
2018-08-03T21:56:50.758Z,22.83
2018-08-03T21:59:19.378Z,23.57
2018-08-03T22:01:48.952Z,22.63
2018-08-03T22:04:17.577Z,20.30
2018-08-03T22:06:46.489Z,18.70
2018-08-03T22:09:15.100Z,18.00
2018-08-03T22:11:43.841Z,16.40
2018-08-03T22:14:12.518Z,18.00
2018-08-03T22:16:41.164Z,17.00
2018-08-03T22:19:09.809Z,18.50
2018-08-03T22:21:38.421Z,19.27
2018-08-03T22:24:07.064Z,19.53
2018-08-03T22:26:36.551Z,23.97
2018-08-03T22:29:05.327Z,17.17
2018-08-03T22:31:34.513Z,16.80
2018-08-03T22:34:03.898Z,17.30
2018-08-03T22:36:32.582Z,17.80
2018-08-03T22:39:01.708Z,19.93
2018-08-03T22:41:30.720Z,17.80
2018-08-03T22:43:59.414Z,18.33
2018-08-03T22:46:28.082Z,18.90
2018-08-03T22:48:56.732Z,21.03
2018-08-03T22:51:25.410Z,18.93
2018-08-03T22:53:54.714Z,19.90
2018-08-03T22:56:23.333Z,18.93
2018-08-03T22:58:52.710Z,22.80
2018-08-03T23:01:21.433Z,22.70
2018-08-03T23:03:50.256Z,19.07
2018-08-03T23:06:19.118Z,19.13
2018-08-03T23:08:48.906Z,20.03
2018-08-03T23:11:18.337Z,19.77
2018-08-03T23:13:47.010Z,21.93
2018-08-03T23:16:15.666Z,24.10
2018-08-03T23:18:44.331Z,20.10
2018-08-03T23:21:12.990Z,22.97
2018-08-03T23:23:41.711Z,20.00
2018-08-03T23:26:10.409Z,18.60
2018-08-03T23:28:39.212Z,22.60
2018-08-03T23:31:07.980Z,18.37
2018-08-03T23:33:37.327Z,24.87
2018-08-03T23:36:06.179Z,24.70
2018-08-03T23:38:34.788Z,20.40
2018-08-03T23:41:03.472Z,26.50
2018-08-03T23:43:32.868Z,27.67
2018-08-03T23:46:01.680Z,21.03
2018-08-03T23:48:30.294Z,29.63
2018-08-03T23:50:59.193Z,19.60
2018-08-03T23:53:28.318Z,17.40
2018-08-03T23:55:56.927Z,22.00
2018-08-03T23:58:25.625Z,18.57
